createdAt,value
2023-04-07T00:02:11.590Z,100800.41
2023-04-07T00:04:39.260Z,100800.69
2023-04-07T00:07:07.380Z,100801.97
2023-04-07T00:09:35.045Z,100805.44
2023-04-07T00:12:02.943Z,100791.72
2023-04-07T00:14:30.535Z,100803.53
2023-04-07T00:16:58.377Z,100796.47
2023-04-07T00:19:25.878Z,100796.63
2023-04-07T00:21:54.369Z,100797.53
2023-04-07T00:24:33.415Z,100788.25
2023-04-07T00:27:02.747Z,100791.56
2023-04-07T00:29:30.428Z,100787.81
2023-04-07T00:31:58.289Z,100780.09
2023-04-07T00:34:25.786Z,100784.50
2023-04-07T00:36:53.918Z,100787.19
2023-04-07T00:39:21.580Z,100783.38
2023-04-07T00:41:49.696Z,100789.38
2023-04-07T00:44:17.289Z,100786.22
2023-04-07T00:46:47.709Z,100782.88
2023-04-07T00:49:18.016Z,100785.25
2023-04-07T00:51:46.922Z,100782.47
2023-04-07T00:54:15.154Z,100784.34
2023-04-07T00:56:43.868Z,100786.22
2023-04-07T00:59:11.544Z,100787.75
2023-04-07T01:01:39.425Z,100778.69
2023-04-07T01:04:13.934Z,100774.28
2023-04-07T01:06:48.783Z,100777.81
2023-04-07T01:09:20.976Z,100768.41
2023-04-07T01:11:58.547Z,100765.47
2023-04-07T01:14:30.512Z,100774.91
2023-04-07T01:17:07.614Z,100766.97
2023-04-07T01:19:41.237Z,100760.69
2023-04-07T01:22:28.953Z,100763.72
2023-04-07T01:24:56.644Z,100760.38
2023-04-07T01:27:27.846Z,100764.13
2023-04-07T01:29:56.463Z,100768.56
2023-04-07T01:32:27.538Z,100769.88
2023-04-07T01:34:56.026Z,100762.78
2023-04-07T01:37:26.834Z,100764.97
2023-04-07T01:39:54.867Z,100768.84
2023-04-07T01:42:22.982Z,100769.34
2023-04-07T01:44:51.354Z,100768.75
2023-04-07T01:47:19.440Z,100765.16
2023-04-07T01:49:47.624Z,100764.81
2023-04-07T01:52:15.838Z,100765.31
2023-04-07T01:54:43.915Z,100761.38
2023-04-07T01:57:11.764Z,100762.91
2023-04-07T01:59:39.394Z,100761.66
2023-04-07T02:02:07.709Z,100759.63
2023-04-07T02:04:49.266Z,100756.19
2023-04-07T02:07:22.645Z,100764.34
2023-04-07T02:09:57.018Z,100756.66
2023-04-07T02:12:26.627Z,100755.53
2023-04-07T02:15:04.400Z,100749.56
2023-04-07T02:17:35.371Z,100759.13
2023-04-07T02:20:04.389Z,100761.50
2023-04-07T02:22:32.276Z,100754.44
2023-04-07T02:24:59.842Z,100747.31
2023-04-07T02:27:28.274Z,100748.31
2023-04-07T02:29:55.959Z,100743.91
2023-04-07T02:32:25.082Z,100745.31
2023-04-07T02:34:52.709Z,100749.09
2023-04-07T02:37:20.465Z,100741.66
2023-04-07T02:39:47.878Z,100752.72
2023-04-07T02:42:15.707Z,100748.78
2023-04-07T02:44:43.186Z,100747.16
2023-04-07T02:47:11.478Z,100752.38
2023-04-07T02:49:39.146Z,100756.47
2023-04-07T02:52:07.352Z,100748.75
2023-04-07T02:54:34.829Z,100747.00
2023-04-07T02:57:02.738Z,100758.34
2023-04-07T02:59:30.194Z,100758.81
2023-04-07T03:01:58.311Z,100755.97
2023-04-07T03:04:26.569Z,100752.50
2023-04-07T03:06:54.684Z,100749.03
2023-04-07T03:09:22.277Z,100748.25
2023-04-07T03:11:50.336Z,100749.44
2023-04-07T03:14:17.933Z,100740.19
2023-04-07T03:16:48.624Z,100744.09
2023-04-07T03:19:17.083Z,100746.66
2023-04-07T03:21:48.474Z,100744.94
2023-04-07T03:24:16.440Z,100749.31
2023-04-07T03:26:46.551Z,100752.13
2023-04-07T03:29:26.946Z,100756.25
2023-04-07T03:31:54.875Z,100763.53
2023-04-07T03:34:25.525Z,100754.34
2023-04-07T03:36:53.325Z,100750.00
2023-04-07T03:39:21.964Z,100746.38
2023-04-07T03:41:52.627Z,100745.53
2023-04-07T03:44:20.344Z,100736.91
2023-04-07T03:46:50.730Z,100742.22
2023-04-07T03:49:20.591Z,100738.72
2023-04-07T03:51:50.345Z,100739.66
2023-04-07T03:54:19.589Z,100744.63
2023-04-07T03:56:47.635Z,100741.31
2023-04-07T03:59:19.360Z,100747.16
2023-04-07T04:02:13.676Z,100742.84
2023-04-07T04:04:41.544Z,100737.06
2023-04-07T04:07:10.973Z,100736.22
2023-04-07T04:09:43.377Z,100738.22
2023-04-07T04:12:12.437Z,100738.50
2023-04-07T04:14:47.893Z,100735.19
2023-04-07T04:17:17.077Z,100730.59
2023-04-07T04:19:47.236Z,100727.53
2023-04-07T04:22:38.155Z,100745.88
2023-04-07T04:25:05.764Z,100735.94
2023-04-07T04:27:33.598Z,100739.16
2023-04-07T04:30:09.891Z,100738.59
2023-04-07T04:32:47.871Z,100739.34
2023-04-07T04:35:17.239Z,100740.00
2023-04-07T04:37:55.755Z,100739.44
2023-04-07T04:40:23.501Z,100740.00
2023-04-07T04:42:52.536Z,100745.09
2023-04-07T04:45:22.224Z,100743.16
2023-04-07T04:47:51.323Z,100742.47
2023-04-07T04:50:19.017Z,100742.19
2023-04-07T04:52:47.924Z,100731.38
2023-04-07T04:55:22.489Z,100744.25
2023-04-07T04:57:51.682Z,100746.72
2023-04-07T05:00:26.835Z,100749.44
2023-04-07T05:03:01.242Z,100753.28
2023-04-07T05:05:28.963Z,100750.91
2023-04-07T05:07:58.140Z,100756.94
2023-04-07T05:10:30.754Z,100750.66
2023-04-07T05:12:58.650Z,100754.91
2023-04-07T05:15:26.542Z,100750.91
2023-04-07T05:17:55.187Z,100745.28
2023-04-07T05:20:27.216Z,100744.22
2023-04-07T05:22:56.037Z,100744.47
2023-04-07T05:25:29.572Z,100745.09
2023-04-07T05:28:00.738Z,100745.25
2023-04-07T05:30:28.538Z,100742.28
2023-04-07T05:32:56.662Z,100742.56
2023-04-07T05:35:37.314Z,100739.84
2023-04-07T05:38:05.140Z,100745.88
2023-04-07T05:40:34.123Z,100739.81
2023-04-07T05:43:04.838Z,100736.81
2023-04-07T05:45:34.510Z,100735.06
2023-04-07T05:48:02.512Z,100729.47
2023-04-07T05:50:41.213Z,100730.34
2023-04-07T05:53:13.189Z,100726.31
2023-04-07T05:55:44.881Z,100727.94
2023-04-07T05:58:40.759Z,100721.03
2023-04-07T06:01:10.132Z,100717.41
2023-04-07T06:03:38.333Z,100722.75
2023-04-07T06:06:19.221Z,100720.44
2023-04-07T06:08:47.802Z,100725.00
2023-04-07T06:11:15.564Z,100722.50
2023-04-07T06:13:43.938Z,100725.63
2023-04-07T06:16:11.510Z,100724.19
2023-04-07T06:18:39.493Z,100716.94
2023-04-07T06:21:07.508Z,100716.72
2023-04-07T06:23:35.678Z,100720.66
2023-04-07T06:26:10.781Z,100712.38
2023-04-07T06:28:38.917Z,100708.31
2023-04-07T06:31:07.519Z,100714.13
2023-04-07T06:33:37.010Z,100711.00
2023-04-07T06:36:04.579Z,100711.09
2023-04-07T06:38:32.507Z,100711.88
2023-04-07T06:41:00.128Z,100719.06
2023-04-07T06:43:27.997Z,100720.09
2023-04-07T06:46:01.662Z,100718.31
2023-04-07T06:48:29.663Z,100715.75
2023-04-07T06:50:57.149Z,100719.00
2023-04-07T06:53:24.957Z,100723.72
2023-04-07T06:55:52.421Z,100726.34
2023-04-07T06:58:20.565Z,100721.97
2023-04-07T07:00:48.066Z,100721.56
2023-04-07T07:03:16.912Z,100716.50
2023-04-07T07:05:44.588Z,100711.22
2023-04-07T07:08:12.336Z,100722.31
2023-04-07T07:10:39.792Z,100726.25
2023-04-07T07:13:07.658Z,100727.13
2023-04-07T07:15:35.690Z,100728.38
2023-04-07T07:18:03.868Z,100722.88
2023-04-07T07:20:31.539Z,100724.09
2023-04-07T07:23:00.088Z,100722.97
2023-04-07T07:25:28.062Z,100718.75
2023-04-07T07:27:56.053Z,100725.47
2023-04-07T07:30:24.333Z,100720.75
2023-04-07T07:32:53.990Z,100725.22
2023-04-07T07:35:22.172Z,100717.13
2023-04-07T07:37:50.018Z,100718.16
2023-04-07T07:40:18.295Z,100709.31
2023-04-07T07:42:46.519Z,100714.59
2023-04-07T07:45:14.197Z,100719.50
2023-04-07T07:47:42.403Z,100709.06
2023-04-07T07:50:10.025Z,100709.16
2023-04-07T07:52:37.896Z,100718.38
2023-04-07T07:55:05.507Z,100713.34
2023-04-07T07:57:33.336Z,100715.81
2023-04-07T08:00:01.007Z,100724.97
2023-04-07T08:02:31.671Z,100725.97
2023-04-07T08:04:59.836Z,100729.19
2023-04-07T08:07:27.831Z,100725.91
2023-04-07T08:09:55.455Z,100710.44
2023-04-07T08:12:23.375Z,100718.81
2023-04-07T08:14:51.059Z,100718.97
2023-04-07T08:17:18.876Z,100717.91
2023-04-07T08:19:46.458Z,100720.41
2023-04-07T08:22:14.454Z,100724.41
2023-04-07T08:24:42.136Z,100732.56
2023-04-07T08:27:09.999Z,100735.75
2023-04-07T08:29:37.642Z,100726.25
2023-04-07T08:32:05.638Z,100734.81
2023-04-07T08:34:33.207Z,100736.31
2023-04-07T08:37:01.656Z,100739.41
2023-04-07T08:39:29.276Z,100734.09
2023-04-07T08:41:58.414Z,100733.75
2023-04-07T08:44:28.320Z,100742.69
2023-04-07T08:46:58.035Z,100732.50
2023-04-07T08:49:29.933Z,100733.16
2023-04-07T08:51:59.703Z,100727.22
2023-04-07T08:54:27.430Z,100721.41
2023-04-07T08:56:55.553Z,100715.25
2023-04-07T08:59:26.993Z,100731.13
2023-04-07T09:01:55.561Z,100720.41
2023-04-07T09:04:24.879Z,100728.19
2023-04-07T09:06:52.906Z,100720.66
2023-04-07T09:09:20.540Z,100717.03
2023-04-07T09:11:48.666Z,100714.41
2023-04-07T09:14:16.602Z,100713.91
2023-04-07T09:16:44.610Z,100717.16
2023-04-07T09:19:12.155Z,100710.63
2023-04-07T09:22:06.675Z,100693.75
2023-04-07T09:24:34.275Z,100696.88
2023-04-07T09:27:14.585Z,100691.53
2023-04-07T09:29:44.870Z,100695.44
2023-04-07T09:32:14.082Z,100690.34
2023-04-07T09:34:41.760Z,100687.25
2023-04-07T09:37:22.196Z,100683.63
2023-04-07T09:39:50.966Z,100685.16
2023-04-07T09:42:18.775Z,100682.44
2023-04-07T09:44:46.499Z,100682.09
2023-04-07T09:47:14.462Z,100684.19
2023-04-07T09:49:50.264Z,100684.66
2023-04-07T09:52:20.680Z,100680.88
2023-04-07T09:54:49.061Z,100685.66
2023-04-07T09:57:18.906Z,100681.28
2023-04-07T09:59:48.991Z,100676.75
2023-04-07T10:02:17.164Z,100675.56
2023-04-07T10:04:44.984Z,100672.59
2023-04-07T10:07:13.106Z,100682.16
2023-04-07T10:09:40.966Z,100674.28
2023-04-07T10:12:08.918Z,100672.13
2023-04-07T10:14:37.545Z,100666.38
2023-04-07T10:17:08.697Z,100662.16
2023-04-07T10:19:36.377Z,100659.94
2023-04-07T10:22:06.707Z,100662.94
2023-04-07T10:24:52.570Z,100660.38
2023-04-07T10:27:22.956Z,100659.69
2023-04-07T10:29:52.848Z,100654.69
2023-04-07T10:32:20.781Z,100663.81
2023-04-07T10:34:57.710Z,100644.63
2023-04-07T10:37:26.258Z,100651.69
2023-04-07T10:40:14.017Z,100646.50
2023-04-07T10:42:42.209Z,100655.63
2023-04-07T10:45:09.954Z,100651.84
2023-04-07T10:47:52.795Z,100647.13
2023-04-07T10:50:21.371Z,100649.47
2023-04-07T10:52:50.166Z,100639.63
2023-04-07T10:55:33.777Z,100644.88
2023-04-07T10:58:21.429Z,100641.00
2023-04-07T11:01:01.386Z,100646.59
2023-04-07T11:03:30.854Z,100639.06
2023-04-07T11:06:06.168Z,100636.06
2023-04-07T11:08:35.290Z,100632.09
2023-04-07T11:11:03.684Z,100631.50
2023-04-07T11:13:40.465Z,100634.50
2023-04-07T11:16:09.173Z,100628.53
2023-04-07T11:18:37.709Z,100624.84
2023-04-07T11:21:08.738Z,100626.28
2023-04-07T11:23:41.045Z,100628.81
2023-04-07T11:26:10.852Z,100623.28
2023-04-07T11:28:49.374Z,100620.94
2023-04-07T11:31:24.674Z,100621.28
2023-04-07T11:33:56.881Z,100624.84
2023-04-07T11:36:42.616Z,100623.97
2023-04-07T11:39:21.826Z,100624.13
2023-04-07T11:41:50.493Z,100617.72
2023-04-07T11:44:18.560Z,100614.69
2023-04-07T11:46:59.844Z,100624.81
2023-04-07T11:49:28.846Z,100607.25
2023-04-07T11:52:01.338Z,100613.13
2023-04-07T11:54:52.277Z,100603.00
2023-04-07T11:57:27.506Z,100610.72
2023-04-07T12:00:12.228Z,100608.97
2023-04-07T12:02:40.347Z,100598.53
2023-04-07T12:05:10.857Z,100603.19
2023-04-07T12:07:38.918Z,100598.72
2023-04-07T12:10:36.739Z,100603.84
2023-04-07T12:13:04.311Z,100590.25
2023-04-07T12:15:32.310Z,100593.63
2023-04-07T12:17:59.939Z,100591.75
2023-04-07T12:20:27.848Z,100594.41
2023-04-07T12:22:55.496Z,100588.16
2023-04-07T12:25:23.535Z,100592.50
2023-04-07T12:27:51.160Z,100598.78
2023-04-07T12:30:19.344Z,100595.63
2023-04-07T12:32:47.982Z,100591.31
2023-04-07T12:35:16.085Z,100585.44
2023-04-07T12:37:43.647Z,100589.53
2023-04-07T12:40:11.814Z,100583.03
2023-04-07T12:42:39.607Z,100577.03
2023-04-07T12:45:07.780Z,100587.28
2023-04-07T12:47:35.417Z,100580.31
2023-04-07T12:50:03.856Z,100583.50
2023-04-07T12:52:32.203Z,100569.53
2023-04-07T12:55:00.199Z,100583.00
2023-04-07T12:57:27.798Z,100567.38
2023-04-07T12:59:55.622Z,100566.75
2023-04-07T13:02:23.305Z,100565.13
2023-04-07T13:04:51.307Z,100563.72
2023-04-07T13:07:19.232Z,100565.84
2023-04-07T13:09:47.146Z,100564.94
2023-04-07T13:12:14.736Z,100554.78
2023-04-07T13:14:53.007Z,100562.78
2023-04-07T13:17:25.005Z,100555.13
2023-04-07T13:19:52.931Z,100554.06
2023-04-07T13:22:22.140Z,100556.66
2023-04-07T13:24:51.564Z,100556.75
2023-04-07T13:27:19.136Z,100560.06
2023-04-07T13:29:47.333Z,100562.38
2023-04-07T13:32:16.437Z,100552.06
2023-04-07T13:34:44.583Z,100553.41
2023-04-07T13:37:12.054Z,100546.75
2023-04-07T13:39:39.834Z,100551.25
2023-04-07T13:42:07.591Z,100555.47
2023-04-07T13:44:37.323Z,100551.56
2023-04-07T13:47:05.033Z,100543.47
2023-04-07T13:49:32.932Z,100542.25
2023-04-07T13:52:00.774Z,100540.97
2023-04-07T13:54:28.677Z,100536.06
2023-04-07T13:56:56.217Z,100539.69
2023-04-07T13:59:24.047Z,100536.00
2023-04-07T14:01:51.838Z,100540.63
2023-04-07T14:04:19.737Z,100541.16
2023-04-07T14:06:47.385Z,100537.50
2023-04-07T14:09:15.217Z,100535.16
2023-04-07T14:11:42.761Z,100534.81
2023-04-07T14:14:10.875Z,100530.63
2023-04-07T14:16:38.475Z,100527.56
2023-04-07T14:19:07.390Z,100531.13
2023-04-07T14:21:34.984Z,100527.94
2023-04-07T14:24:02.855Z,100527.75
2023-04-07T14:26:30.634Z,100523.81
2023-04-07T14:28:58.541Z,100531.50
2023-04-07T14:31:26.245Z,100526.38
2023-04-07T14:33:54.506Z,100528.00
2023-04-07T14:36:22.194Z,100529.19
2023-04-07T14:38:51.374Z,100523.13
2023-04-07T14:41:20.479Z,100528.97
2023-04-07T14:43:52.347Z,100530.59
2023-04-07T14:46:21.289Z,100528.25
2023-04-07T14:48:49.199Z,100526.16
2023-04-07T14:51:16.838Z,100528.28
2023-04-07T14:53:45.974Z,100524.47
2023-04-07T14:56:13.736Z,100522.53
2023-04-07T14:58:41.786Z,100515.97
2023-04-07T15:01:09.419Z,100521.28
2023-04-07T15:03:37.421Z,100521.97
2023-04-07T15:06:08.987Z,100513.91
2023-04-07T15:08:37.727Z,100513.09
2023-04-07T15:11:08.543Z,100518.38
2023-04-07T15:13:36.767Z,100520.78
2023-04-07T15:16:11.907Z,100528.28
2023-04-07T15:18:44.744Z,100520.28
2023-04-07T15:21:12.705Z,100529.16
2023-04-07T15:23:42.197Z,100527.28
2023-04-07T15:26:10.292Z,100530.16
2023-04-07T15:28:38.527Z,100525.03
2023-04-07T15:31:09.291Z,100525.97
2023-04-07T15:33:38.380Z,100522.94
2023-04-07T15:36:06.912Z,100522.06
2023-04-07T15:38:35.158Z,100527.44
2023-04-07T15:41:02.636Z,100537.50
2023-04-07T15:43:30.624Z,100527.63
2023-04-07T15:45:58.148Z,100516.22
2023-04-07T15:48:26.205Z,100508.50
2023-04-07T15:50:53.796Z,100509.53
2023-04-07T15:53:21.626Z,100500.78
2023-04-07T15:55:49.123Z,100502.47
2023-04-07T15:58:17.251Z,100505.41
2023-04-07T16:00:45.008Z,100504.66
2023-04-07T16:03:13.103Z,100501.25
2023-04-07T16:05:40.774Z,100513.97
2023-04-07T16:08:08.698Z,100504.31
2023-04-07T16:10:36.236Z,100498.38
2023-04-07T16:13:04.145Z,100503.47
2023-04-07T16:15:39.948Z,100508.97
2023-04-07T16:18:10.391Z,100504.25
2023-04-07T16:20:38.163Z,100505.75
2023-04-07T16:23:06.078Z,100502.69
2023-04-07T16:25:33.553Z,100500.66
2023-04-07T16:28:01.548Z,100509.34
2023-04-07T16:30:29.137Z,100504.72
2023-04-07T16:32:57.064Z,100512.59
2023-04-07T16:35:24.727Z,100506.22
2023-04-07T16:37:54.866Z,100498.66
2023-04-07T16:40:22.423Z,100508.69
2023-04-07T16:42:50.239Z,100508.41
2023-04-07T16:45:17.953Z,100508.81
2023-04-07T16:47:45.991Z,100513.84
2023-04-07T16:50:13.621Z,100522.56
2023-04-07T16:52:41.537Z,100526.06
2023-04-07T16:55:09.305Z,100523.84
2023-04-07T16:57:37.339Z,100525.84
2023-04-07T17:00:06.004Z,100524.72
2023-04-07T17:02:34.015Z,100531.50
2023-04-07T17:05:01.820Z,100524.56
2023-04-07T17:07:29.706Z,100532.72
2023-04-07T17:09:57.395Z,100527.25
2023-04-07T17:12:26.497Z,100534.34
2023-04-07T17:14:54.028Z,100536.00
2023-04-07T17:17:21.858Z,100536.53
2023-04-07T17:19:49.376Z,100541.66
2023-04-07T17:22:17.464Z,100540.56
2023-04-07T17:24:46.255Z,100542.56
2023-04-07T17:27:14.173Z,100542.09
2023-04-07T17:29:41.722Z,100553.84
2023-04-07T17:32:10.022Z,100550.78
2023-04-07T17:34:37.762Z,100553.91
2023-04-07T17:37:05.895Z,100552.81
2023-04-07T17:39:33.553Z,100556.53
2023-04-07T17:42:01.543Z,100553.81
2023-04-07T17:44:31.213Z,100548.81
2023-04-07T17:46:59.362Z,100558.44
2023-04-07T17:49:26.893Z,100557.22
2023-04-07T17:51:55.725Z,100558.78
2023-04-07T17:54:23.736Z,100559.75
2023-04-07T17:56:51.653Z,100559.31
2023-04-07T17:59:19.204Z,100566.94
2023-04-07T18:01:47.258Z,100564.34
2023-04-07T18:04:15.149Z,100570.16
2023-04-07T18:06:44.073Z,100570.00
2023-04-07T18:09:11.776Z,100563.56
2023-04-07T18:11:39.889Z,100578.75
2023-04-07T18:14:07.634Z,100575.19
2023-04-07T18:16:35.835Z,100582.34
2023-04-07T18:19:03.685Z,100582.75
2023-04-07T18:21:31.861Z,100594.97
2023-04-07T18:23:59.594Z,100603.72
2023-04-07T18:26:27.802Z,100602.63
2023-04-07T18:28:55.847Z,100607.00
2023-04-07T18:31:24.039Z,100608.50
2023-04-07T18:33:51.853Z,100609.94
2023-04-07T18:36:22.584Z,100607.38
2023-04-07T18:38:50.333Z,100625.59
2023-04-07T18:41:19.030Z,100628.16
2023-04-07T18:43:47.962Z,100625.34
2023-04-07T18:46:16.366Z,100629.19
2023-04-07T18:48:44.645Z,100631.41
2023-04-07T18:51:12.802Z,100632.19
2023-04-07T18:53:40.397Z,100637.47
2023-04-07T18:56:08.522Z,100634.88
2023-04-07T18:58:44.014Z,100634.00
2023-04-07T19:01:13.743Z,100643.69
2023-04-07T19:03:42.075Z,100646.75
2023-04-07T19:06:15.976Z,100647.09
2023-04-07T19:08:43.468Z,100656.25
2023-04-07T19:11:11.407Z,100658.78
2023-04-07T19:13:39.121Z,100666.81
2023-04-07T19:16:08.051Z,100666.13
2023-04-07T19:18:36.814Z,100672.63
2023-04-07T19:21:04.647Z,100677.56
2023-04-07T19:23:32.715Z,100683.44
2023-04-07T19:26:01.173Z,100696.00
2023-04-07T19:28:28.916Z,100694.34
2023-04-07T19:30:57.186Z,100694.75
2023-04-07T19:33:24.952Z,100703.22
2023-04-07T19:35:52.947Z,100706.47
2023-04-07T19:38:20.925Z,100703.22
2023-04-07T19:40:49.138Z,100707.50
2023-04-07T19:43:17.629Z,100704.81
2023-04-07T19:45:46.882Z,100705.13
2023-04-07T19:48:14.571Z,100714.56
2023-04-07T19:50:44.134Z,100710.84
2023-04-07T19:53:16.459Z,100715.28
2023-04-07T19:55:48.040Z,100710.50
2023-04-07T19:58:19.486Z,100711.97
2023-04-07T20:00:49.894Z,100721.53
2023-04-07T20:03:17.775Z,100722.63
2023-04-07T20:05:45.826Z,100718.97
2023-04-07T20:08:13.491Z,100729.19
2023-04-07T20:10:41.619Z,100720.66
2023-04-07T20:13:09.798Z,100731.72
2023-04-07T20:15:37.721Z,100724.38
2023-04-07T20:18:05.358Z,100726.81
2023-04-07T20:20:33.332Z,100724.81
2023-04-07T20:23:00.899Z,100726.03
2023-04-07T20:25:28.775Z,100726.72
2023-04-07T20:27:56.340Z,100727.06
2023-04-07T20:30:24.243Z,100717.53
2023-04-07T20:32:51.887Z,100723.09
2023-04-07T20:35:19.865Z,100720.13
2023-04-07T20:37:47.450Z,100733.53
2023-04-07T20:40:15.763Z,100721.16
2023-04-07T20:42:43.352Z,100727.50
2023-04-07T20:45:12.572Z,100720.50
2023-04-07T20:47:40.710Z,100726.16
2023-04-07T20:50:09.133Z,100724.50
2023-04-07T20:52:40.632Z,100717.63
2023-04-07T20:55:08.758Z,100726.41
2023-04-07T20:57:36.326Z,100723.59
2023-04-07T21:00:05.734Z,100720.31
2023-04-07T21:02:33.456Z,100718.81
2023-04-07T21:05:01.781Z,100715.34
2023-04-07T21:07:29.472Z,100719.28
2023-04-07T21:09:57.329Z,100716.09
2023-04-07T21:12:24.951Z,100721.59
2023-04-07T21:14:52.859Z,100711.84
2023-04-07T21:17:20.750Z,100724.56
2023-04-07T21:19:48.660Z,100717.56
2023-04-07T21:22:16.345Z,100718.09
2023-04-07T21:24:44.683Z,100705.38
2023-04-07T21:27:12.452Z,100710.22
2023-04-07T21:29:43.284Z,100710.88
2023-04-07T21:32:11.394Z,100703.16
2023-04-07T21:34:39.434Z,100707.09
2023-04-07T21:37:07.562Z,100707.72
2023-04-07T21:39:35.691Z,100709.06
2023-04-07T21:42:03.335Z,100700.56
2023-04-07T21:44:31.899Z,100704.88
2023-04-07T21:46:59.583Z,100709.06
2023-04-07T21:49:27.755Z,100706.88
2023-04-07T21:51:55.418Z,100704.84
2023-04-07T21:54:23.428Z,100700.78
2023-04-07T21:56:52.848Z,100685.47
2023-04-07T21:59:20.801Z,100688.06
2023-04-07T22:01:48.642Z,100689.28
2023-04-07T22:04:16.873Z,100680.59
2023-04-07T22:06:44.538Z,100684.94
2023-04-07T22:09:12.403Z,100684.16
2023-04-07T22:11:40.030Z,100682.56
2023-04-07T22:14:07.951Z,100688.56
2023-04-07T22:16:35.685Z,100687.59
2023-04-07T22:19:03.893Z,100681.00
2023-04-07T22:21:31.630Z,100689.56
2023-04-07T22:23:59.554Z,100691.16
2023-04-07T22:26:27.216Z,100686.84
2023-04-07T22:28:55.055Z,100689.22
2023-04-07T22:31:22.736Z,100695.41
2023-04-07T22:33:53.143Z,100694.75
2023-04-07T22:36:20.734Z,100697.47
2023-04-07T22:38:48.791Z,100693.03
2023-04-07T22:41:16.518Z,100697.34
2023-04-07T22:43:44.377Z,100698.50
2023-04-07T22:46:11.980Z,100701.13
2023-04-07T22:48:39.807Z,100697.47
2023-04-07T22:51:07.741Z,100699.50
2023-04-07T22:53:35.825Z,100698.44
2023-04-07T22:56:03.477Z,100704.41
2023-04-07T22:58:31.508Z,100695.88
2023-04-07T23:00:59.143Z,100697.47
2023-04-07T23:03:27.622Z,100700.19
2023-04-07T23:05:55.556Z,100697.16
2023-04-07T23:08:23.505Z,100703.44
2023-04-07T23:10:51.027Z,100702.00
2023-04-07T23:13:19.314Z,100711.75
2023-04-07T23:15:46.904Z,100706.41
2023-04-07T23:18:14.863Z,100703.09
2023-04-07T23:20:43.027Z,100708.28
2023-04-07T23:23:11.031Z,100714.44
2023-04-07T23:25:38.560Z,100714.13
2023-04-07T23:28:06.455Z,100711.63
2023-04-07T23:30:34.017Z,100713.19
2023-04-07T23:33:01.941Z,100712.59
2023-04-07T23:35:29.575Z,100710.38
2023-04-07T23:37:57.583Z,100716.97
2023-04-07T23:40:25.198Z,100705.63
2023-04-07T23:42:53.164Z,100705.03
2023-04-07T23:45:20.814Z,100699.19
2023-04-07T23:47:48.915Z,100703.28
2023-04-07T23:50:16.527Z,100714.69
2023-04-07T23:52:44.710Z,100694.59
2023-04-07T23:55:12.387Z,100708.06
2023-04-07T23:57:40.539Z,100710.13
